Time;durP1;ratioP1;P1;durP2;ratioP2;P2;SDS_P1;SDS_P2;PMS_P1;PMS_P2;Temp;Humidity;BMP_temperature;BMP_pressure;BME280_temperature;BME280_humidity;BME280_pressure;Samples;Min_cycle;Max_cycle;Signal;HPM_P1;HPM_P2
2023/03/27 00:00:07;;;;;;;1.60;1.10;;;5.60;1.00;;;;;;5092571;28;20181;-45
2023/03/27 00:02:33;;;;;;;1.40;1.23;;;5.70;1.00;;;;;;5093719;28;20418;-44
2023/03/27 00:05:00;;;;;;;2.37;1.13;;;5.70;1.00;;;;;;5093439;28;20473;-43
2023/03/27 00:07:26;;;;;;;1.10;0.87;;;5.70;1.00;;;;;;5093975;28;20179;-44
2023/03/27 00:09:52;;;;;;;1.50;1.30;;;5.70;1.00;;;;;;5093762;28;20419;-43
2023/03/27 00:12:17;;;;;;;1.10;0.80;;;5.70;1.00;;;;;;5095493;28;20179;-42
2023/03/27 00:14:44;;;;;;;1.00;0.60;;;5.70;1.00;;;;;;5094944;28;20660;-43
2023/03/27 00:17:10;;;;;;;0.80;0.50;;;5.70;1.00;;;;;;5096062;28;20176;-44
2023/03/27 00:19:35;;;;;;;1.00;0.63;;;5.60;99.90;;;;;;5095438;28;20445;-44
2023/03/27 00:22:01;;;;;;;1.33;0.70;;;5.60;1.00;;;;;;5093421;28;20236;-42
2023/03/27 00:24:27;;;;;;;1.03;0.60;;;5.60;1.00;;;;;;5094650;28;20203;-43
2023/03/27 00:26:53;;;;;;;1.50;0.80;;;5.50;1.00;;;;;;5094937;28;20216;-45
2023/03/27 00:29:19;;;;;;;1.10;0.70;;;5.50;1.00;;;;;;5094837;28;20581;-44
2023/03/27 00:31:45;;;;;;;1.20;0.90;;;5.50;1.00;;;;;;5095167;28;20448;-44
2023/03/27 00:34:11;;;;;;;1.27;0.83;;;5.50;1.00;;;;;;5095247;28;20212;-42
2023/03/27 00:36:36;;;;;;;1.10;0.70;;;5.50;1.00;;;;;;5093850;28;20410;-43
2023/03/27 00:39:03;;;;;;;1.10;0.73;;;5.50;1.00;;;;;;5094895;28;20411;-44
2023/03/27 00:41:29;;;;;;;1.77;0.90;;;5.50;1.00;;;;;;5094983;28;20176;-43
2023/03/27 00:43:57;;;;;;;1.43;1.33;;;5.50;1.00;;;;;;5093448;28;20499;-45
2023/03/27 00:46:30;;;;;;;2.30;2.10;;;5.50;1.00;;;;;;5093978;28;20402;-46
2023/03/27 00:48:56;;;;;;;2.10;1.53;;;5.50;1.00;;;;;;5094656;28;20752;-43
2023/03/27 00:51:23;;;;;;;2.03;1.50;;;5.50;1.00;;;;;;5097233;28;20497;-47
2023/03/27 00:53:49;;;;;;;1.53;1.43;;;5.50;1.00;;;;;;5097345;28;20414;-46
2023/03/27 00:56:15;;;;;;;2.40;1.73;;;5.50;1.00;;;;;;5098318;28;20899;-45
2023/03/27 00:58:50;;;;;;;1.70;1.60;;;5.40;1.00;;;;;;5099276;28;20422;-43
2023/03/27 01:01:16;;;;;;;2.17;1.80;;;5.40;1.00;;;;;;5098941;28;20646;-44
2023/03/27 01:03:44;;;;;;;2.00;1.80;;;5.40;1.00;;;;;;5099334;28;20419;-45
2023/03/27 01:06:12;;;;;;;2.90;1.80;;;5.30;1.00;;;;;;5100078;28;20414;-45
2023/03/27 01:09:12;;;;;;;2.00;1.80;;;5.30;1.00;;;;;;5100465;28;20438;-43
2023/03/27 01:11:44;;;;;;;2.60;2.00;;;5.30;1.00;;;;;;5098803;28;20415;-45
2023/03/27 01:14:37;;;;;;;2.70;2.50;;;5.20;1.00;;;;;;5097522;28;20456;-42
2023/03/27 01:17:22;;;;;;;1.97;1.80;;;5.20;1.00;;;;;;5098842;28;20657;-44
2023/03/27 01:20:26;;;;;;;2.50;2.13;;;5.20;1.00;;;;;;5098553;28;20816;-42
2023/03/27 01:23:07;;;;;;;2.47;2.27;;;5.20;1.00;;;;;;5066770;28;20618;-43
2023/03/27 01:25:50;;;;;;;2.27;2.03;;;5.20;1.00;;;;;;5097732;28;20559;-47
2023/03/27 01:28:42;;;;;;;1.50;1.33;;;5.20;1.00;;;;;;5097956;28;20797;-43
2023/03/27 01:31:26;;;;;;;1.60;1.50;;;5.10;1.00;;;;;;5097550;28;20413;-44
2023/03/27 01:34:24;;;;;;;2.10;1.90;;;5.20;1.00;;;;;;5098590;28;20418;-43
2023/03/27 01:37:07;;;;;;;1.63;1.50;;;5.20;1.00;;;;;;5099325;28;20410;-46
2023/03/27 01:39:34;;;;;;;1.80;1.50;;;5.10;1.00;;;;;;5098272;28;20696;-43
2023/03/27 01:42:05;;;;;;;1.97;1.30;;;5.10;1.00;;;;;;5097760;28;20434;-42
2023/03/27 01:44:37;;;;;;;2.53;1.70;;;5.10;1.00;;;;;;5098288;28;20470;-43
2023/03/27 01:47:18;;;;;;;2.20;1.47;;;5.00;1.00;;;;;;5097561;28;20423;-45
2023/03/27 01:50:03;;;;;;;2.03;1.50;;;4.90;1.00;;;;;;5098077;28;20522;-44
2023/03/27 01:52:31;;;;;;;1.30;1.13;;;4.90;1.00;;;;;;5098119;28;20661;-47
2023/03/27 01:55:02;;;;;;;1.57;1.20;;;4.90;1.00;;;;;;5097009;28;20483;-44
2023/03/27 01:57:36;;;;;;;1.53;1.30;;;4.80;1.00;;;;;;5097109;28;20418;-43
2023/03/27 02:00:16;;;;;;;1.20;0.93;;;4.70;1.00;;;;;;5097309;28;20513;-46
2023/03/27 02:02:50;;;;;;;1.30;1.10;;;4.70;1.00;;;;;;5096506;28;20443;-42
2023/03/27 02:05:21;;;;;;;5.13;3.20;;;4.60;1.00;;;;;;5097999;28;20472;-41
2023/03/27 02:07:52;;;;;;;8.87;4.53;;;4.50;1.00;;;;;;5099199;28;20436;-43
2023/03/27 02:10:24;;;;;;;8.43;5.70;;;4.50;1.00;;;;;;5097366;28;20696;-44
2023/03/27 02:12:55;;;;;;;8.43;6.77;;;4.40;1.00;;;;;;5097588;28;20816;-44
2023/03/27 02:15:29;;;;;;;7.97;6.60;;;4.30;1.00;;;;;;5098404;28;20812;-45
2023/03/27 02:18:06;;;;;;;11.27;6.90;;;4.20;1.00;;;;;;5098074;28;20433;-45
2023/03/27 02:20:33;;;;;;;9.10;7.17;;;4.20;1.00;;;;;;5097913;28;20410;-43
2023/03/27 02:22:59;;;;;;;13.10;8.37;;;4.10;1.00;;;;;;5097076;28;20852;-43
2023/03/27 02:25:43;;;;;;;11.23;7.77;;;4.10;1.00;;;;;;5098001;28;20552;-44
2023/03/27 02:28:53;;;;;;;13.17;8.77;;;4.10;1.00;;;;;;5097597;28;20486;-44
2023/03/27 02:31:37;;;;;;;8.80;7.90;;;4.10;1.00;;;;;;5097671;28;20410;-43
2023/03/27 02:34:11;;;;;;;13.87;8.07;;;4.00;1.00;;;;;;5098239;28;20415;-46
2023/03/27 02:37:02;;;;;;;14.10;10.10;;;4.00;1.00;;;;;;5097709;28;20402;-45
2023/03/27 02:39:58;;;;;;;12.37;9.43;;;4.00;1.00;;;;;;5095954;28;20405;-44
2023/03/27 02:42:53;;;;;;;14.67;8.00;;;4.00;1.00;;;;;;5093708;28;20433;-42
2023/03/27 02:45:40;;;;;;;14.23;9.60;;;3.90;1.00;;;;;;5094264;28;20454;-43
2023/03/27 02:48:41;;;;;;;11.30;9.60;;;3.90;1.00;;;;;;5094331;28;20422;-44
2023/03/27 02:51:28;;;;;;;14.20;9.60;;;3.90;1.00;;;;;;5077302;28;20446;-44
2023/03/27 02:54:13;;;;;;;15.73;9.70;;;3.90;1.00;;;;;;5094405;28;20512;-46
2023/03/27 02:56:45;;;;;;;14.80;9.63;;;3.80;1.00;;;;;;5095662;28;20449;-46
2023/03/27 02:59:27;;;;;;;11.20;8.17;;;3.80;1.00;;;;;;5095772;28;20426;-43
2023/03/27 03:01:53;;;;;;;16.67;8.70;;;3.70;99.90;;;;;;5095103;28;20414;-44
2023/03/27 03:04:31;;;;;;;10.67;7.60;;;3.60;99.90;;;;;;5096321;28;20454;-43
2023/03/27 03:06:57;;;;;;;13.33;6.53;;;3.60;99.90;;;;;;5096597;28;20426;-45
2023/03/27 03:09:23;;;;;;;17.40;7.50;;;3.60;99.90;;;;;;5096374;28;20575;-45
2023/03/27 03:11:53;;;;;;;11.73;6.50;;;3.50;99.90;;;;;;5097150;28;20423;-43
2023/03/27 03:14:23;;;;;;;12.67;6.50;;;3.40;99.90;;;;;;5096651;28;20521;-45
2023/03/27 03:16:49;;;;;;;12.43;6.70;;;3.30;99.90;;;;;;5097529;28;20511;-43
2023/03/27 03:19:14;;;;;;;10.77;6.00;;;3.10;99.90;;;;;;5096734;28;20854;-44
2023/03/27 03:21:40;;;;;;;10.07;5.40;;;3.10;99.90;;;;;;5097042;28;20270;-43
2023/03/27 03:24:06;;;;;;;14.80;5.60;;;3.00;99.90;;;;;;5097646;28;20208;-43
2023/03/27 03:26:32;;;;;;;12.80;4.80;;;2.90;99.90;;;;;;5097327;28;20281;-42
2023/03/27 03:28:58;;;;;;;12.00;3.60;;;2.90;99.90;;;;;;5097635;28;20773;-42
2023/03/27 03:31:23;;;;;;;12.57;4.93;;;2.80;1.00;;;;;;5096353;28;20417;-44
2023/03/27 03:33:49;;;;;;;8.93;5.00;;;2.80;1.00;;;;;;5094960;28;20180;-43
2023/03/27 03:36:15;;;;;;;17.53;4.90;;;2.80;1.00;;;;;;5095702;28;20176;-43
2023/03/27 03:38:41;;;;;;;12.03;3.97;;;2.90;99.90;;;;;;5096863;28;20546;-45
2023/03/27 03:41:06;;;;;;;13.67;6.77;;;2.90;99.90;;;;;;5096977;28;20223;-42
2023/03/27 03:43:32;;;;;;;9.27;4.97;;;2.80;27.50;;;;;;5097063;28;20708;-44
2023/03/27 03:45:58;;;;;;;13.80;6.07;;;2.90;1.00;;;;;;5096896;28;20207;-42
2023/03/27 03:48:25;;;;;;;8.37;4.10;;;2.90;1.00;;;;;;5096240;28;20468;-43
2023/03/27 03:50:50;;;;;;;15.80;8.27;;;2.90;99.90;;;;;;5097132;28;20418;-44
2023/03/27 03:53:18;;;;;;;15.87;7.43;;;2.90;99.90;;;;;;5097439;28;20434;-45
2023/03/27 03:55:44;;;;;;;9.50;4.70;;;2.80;99.90;;;;;;5097116;28;20503;-42
2023/03/27 03:58:11;;;;;;;5.60;3.47;;;2.90;99.90;;;;;;5095964;28;20418;-45
2023/03/27 04:00:37;;;;;;;7.50;5.13;;;2.80;1.00;;;;;;5095713;28;20441;-44
2023/03/27 04:03:07;;;;;;;8.10;4.30;;;2.70;1.00;;;;;;5095977;28;21003;-42
2023/03/27 04:05:35;;;;;;;10.30;3.70;;;2.70;54.70;;;;;;5096806;28;20614;-44
2023/03/27 04:08:01;;;;;;;4.77;3.57;;;2.60;99.90;;;;;;5096704;28;20415;-43
2023/03/27 04:10:28;;;;;;;13.57;3.57;;;2.60;1.00;;;;;;5096730;28;20502;-44
2023/03/27 04:12:53;;;;;;;9.87;3.50;;;2.70;1.00;;;;;;5096259;28;20442;-45
2023/03/27 04:15:19;;;;;;;11.10;4.07;;;2.70;1.00;;;;;;5096351;28;20824;-42
2023/03/27 04:17:47;;;;;;;8.40;3.87;;;2.60;99.90;;;;;;5094770;28;20263;-43
2023/03/27 04:20:13;;;;;;;7.20;4.30;;;2.60;99.90;;;;;;5094383;28;20180;-45
2023/03/27 04:22:45;;;;;;;7.63;3.60;;;2.60;99.90;;;;;;5095596;28;20824;-43
2023/03/27 04:25:12;;;;;;;6.60;3.50;;;2.60;1.00;;;;;;5096220;28;20465;-45
2023/03/27 04:27:38;;;;;;;7.60;3.57;;;2.50;1.00;;;;;;5098330;28;20462;-42
2023/03/27 04:30:07;;;;;;;9.00;3.70;;;2.50;99.90;;;;;;5099185;28;20489;-44
2023/03/27 04:32:33;;;;;;;6.27;3.50;;;2.40;99.90;;;;;;5098754;28;20765;-45
2023/03/27 04:34:59;;;;;;;8.57;3.60;;;2.40;99.90;;;;;;5097399;28;20517;-44
2023/03/27 04:37:26;;;;;;;9.40;3.23;;;2.40;99.90;;;;;;5096621;28;20429;-44
2023/03/27 04:39:52;;;;;;;9.87;4.40;;;2.30;99.90;;;;;;5096846;28;21041;-43
2023/03/27 04:42:21;;;;;;;8.17;4.50;;;2.20;1.00;;;;;;5096038;28;20428;-43
2023/03/27 04:44:47;;;;;;;10.63;3.87;;;2.20;1.00;;;;;;5095551;28;20425;-41
2023/03/27 04:47:13;;;;;;;8.20;3.70;;;2.20;1.00;;;;;;5095856;28;20418;-44
2023/03/27 04:49:49;;;;;;;9.70;3.97;;;2.20;1.00;;;;;;5097526;28;20177;-44
2023/03/27 04:52:16;;;;;;;15.13;8.33;;;2.10;1.00;;;;;;5098052;28;20427;-43
2023/03/27 04:54:41;;;;;;;16.43;8.17;;;2.10;1.00;;;;;;5096945;28;20458;-44
2023/03/27 04:57:08;;;;;;;32.63;13.70;;;2.10;1.00;;;;;;5096940;28;20418;-42
2023/03/27 04:59:35;;;;;;;17.00;7.90;;;2.10;1.00;;;;;;5095999;28;20467;-43
2023/03/27 05:02:01;;;;;;;31.47;14.27;;;2.00;1.00;;;;;;5095827;28;20434;-43
2023/03/27 05:04:27;;;;;;;17.17;8.30;;;2.00;99.90;;;;;;5096101;28;20805;-44
2023/03/27 05:06:54;;;;;;;16.40;5.87;;;2.00;1.00;;;;;;5094131;28;20482;-42
2023/03/27 05:09:20;;;;;;;15.37;8.00;;;1.90;1.00;;;;;;5093391;28;20514;-42
2023/03/27 05:11:48;;;;;;;11.60;6.20;;;1.90;1.00;;;;;;5092011;28;20430;-41
2023/03/27 05:14:19;;;;;;;11.10;4.90;;;1.90;1.00;;;;;;5092810;28;20509;-42
2023/03/27 05:16:45;;;;;;;19.57;5.07;;;1.90;99.90;;;;;;5095256;28;20418;-43
2023/03/27 05:19:10;;;;;;;9.13;4.30;;;1.80;1.00;;;;;;5094525;28;20506;-42
2023/03/27 05:21:37;;;;;;;7.87;3.00;;;1.80;32.00;;;;;;5097565;28;20920;-42
2023/03/27 05:24:03;;;;;;;9.57;3.63;;;1.80;1.00;;;;;;5095499;28;20172;-42
2023/03/27 05:26:28;;;;;;;9.03;3.40;;;1.70;1.00;;;;;;5095588;28;20763;-42
2023/03/27 05:28:54;;;;;;;10.83;3.20;;;1.70;43.90;;;;;;5096634;28;20177;-43
2023/03/27 05:31:24;;;;;;;7.73;3.10;;;1.60;25.20;;;;;;5097486;28;20182;-44
2023/03/27 05:33:51;;;;;;;14.40;3.60;;;1.60;34.20;;;;;;5096002;28;20840;-43
2023/03/27 05:36:17;;;;;;;11.10;3.20;;;1.60;9.00;;;;;;5094166;28;20466;-43
2023/03/27 05:38:43;;;;;;;8.00;3.13;;;1.60;71.00;;;;;;5094672;28;20499;-46
2023/03/27 05:41:09;;;;;;;11.33;3.47;;;1.60;99.90;;;;;;5094186;28;20766;-44
2023/03/27 05:43:35;;;;;;;6.43;2.77;;;1.60;99.90;;;;;;5093429;28;20169;-43
2023/03/27 05:46:02;;;;;;;9.70;3.70;;;1.60;74.60;;;;;;5094848;28;20417;-43
2023/03/27 05:48:27;;;;;;;8.03;3.20;;;1.70;1.00;;;;;;5094089;28;20417;-43
2023/03/27 05:50:53;;;;;;;12.00;3.83;;;1.70;1.00;;;;;;5093079;28;20697;-44
2023/03/27 05:53:19;;;;;;;11.77;4.10;;;1.70;1.00;;;;;;5092904;28;20191;-42
2023/03/27 05:55:45;;;;;;;7.17;3.97;;;1.70;99.90;;;;;;5094236;28;20209;-44
2023/03/27 05:58:12;;;;;;;10.97;2.83;;;1.70;1.00;;;;;;5094024;28;20169;-43
2023/03/27 06:00:40;;;;;;;9.50;3.07;;;1.70;99.90;;;;;;5093153;28;20480;-46
2023/03/27 06:03:06;;;;;;;9.20;6.40;;;1.70;99.90;;;;;;5095106;28;20514;-45
2023/03/27 06:05:39;;;;;;;9.27;3.40;;;1.80;25.90;;;;;;5094598;28;20894;-42
2023/03/27 06:08:13;;;;;;;8.63;2.87;;;1.80;99.90;;;;;;5092858;28;20237;-44
2023/03/27 06:10:40;;;;;;;8.27;2.80;;;1.90;1.00;;;;;;5091352;28;20456;-44
2023/03/27 06:13:11;;;;;;;6.63;2.53;;;1.90;99.90;;;;;;5088294;28;20530;-45
2023/03/27 06:15:39;;;;;;;6.70;2.43;;;2.00;99.90;;;;;;5073008;28;20506;-44
2023/03/27 06:18:05;;;;;;;7.90;2.53;;;1.90;1.00;;;;;;5073862;28;20488;-43
2023/03/27 06:20:31;;;;;;;7.57;2.67;;;1.90;1.00;;;;;;5073328;28;20411;-44
2023/03/27 06:22:58;;;;;;;13.47;3.50;;;2.00;1.00;;;;;;5074093;28;20915;-45
2023/03/27 06:25:25;;;;;;;8.30;3.10;;;2.00;14.30;;;;;;5073760;28;20176;-43
2023/03/27 06:27:52;;;;;;;10.57;6.17;;;2.00;99.90;;;;;;5072507;28;20862;-42
2023/03/27 06:30:20;;;;;;;9.73;3.70;;;2.10;27.70;;;;;;5072942;28;20443;-42
2023/03/27 06:32:49;;;;;;;8.20;3.27;;;2.10;1.00;;;;;;5056514;28;20436;-46
2023/03/27 06:35:16;;;;;;;7.67;3.83;;;2.10;1.00;;;;;;5073363;28;20459;-43
2023/03/27 06:37:44;;;;;;;24.57;10.83;;;2.10;1.00;;;;;;5071532;28;20481;-42
2023/03/27 06:40:19;;;;;;;14.13;8.60;;;2.20;1.00;;;;;;5080432;28;20537;-43
2023/03/27 06:42:52;;;;;;;13.00;7.40;;;2.20;1.00;;;;;;5089819;28;20449;-46
2023/03/27 06:45:18;;;;;;;25.97;15.57;;;2.20;99.90;;;;;;5080354;28;20434;-43
2023/03/27 06:47:51;;;;;;;18.83;12.30;;;2.30;99.90;;;;;;5091963;28;20414;-46
2023/03/27 06:50:18;;;;;;;10.70;4.67;;;2.50;1.00;;;;;;5092459;28;20421;-44
2023/03/27 06:52:44;;;;;;;7.90;3.50;;;2.70;36.00;;;;;;5094375;28;20509;-45
2023/03/27 06:55:10;;;;;;;6.57;2.70;;;2.90;99.90;;;;;;5093864;28;20496;-44
2023/03/27 06:57:41;;;;;;;8.63;3.17;;;3.00;2.00;;;;;;5077159;28;20441;-44
2023/03/27 07:00:11;;;;;;;7.43;3.67;;;3.10;1.00;;;;;;5075018;28;20420;-45
2023/03/27 07:02:38;;;;;;;6.40;3.00;;;3.20;99.90;;;;;;5074253;28;20510;-44
2023/03/27 07:05:04;;;;;;;9.63;4.17;;;3.30;99.90;;;;;;5074576;28;21142;-43
2023/03/27 07:07:29;;;;;;;10.83;4.23;;;3.40;93.90;;;;;;5074574;28;20521;-43
2023/03/27 07:09:55;;;;;;;9.10;4.10;;;3.60;1.00;;;;;;5073463;28;20869;-44
2023/03/27 07:12:21;;;;;;;9.17;3.37;;;3.70;99.90;;;;;;5073540;28;20613;-45
2023/03/27 07:14:46;;;;;;;12.37;4.07;;;3.70;99.90;;;;;;5073154;28;20463;-43
2023/03/27 07:17:12;;;;;;;6.87;3.33;;;3.80;99.90;;;;;;5072593;28;20191;-43
2023/03/27 07:19:37;;;;;;;9.10;3.87;;;4.00;99.90;;;;;;5072805;28;20185;-46
2023/03/27 07:22:03;;;;;;;9.60;3.80;;;4.10;1.00;;;;;;5071415;28;20548;-44
2023/03/27 07:24:29;;;;;;;11.60;3.90;;;4.10;1.00;;;;;;5072753;28;20180;-44
2023/03/27 07:26:55;;;;;;;9.90;2.90;;;4.00;1.00;;;;;;5075551;28;20239;-44
2023/03/27 07:29:21;;;;;;;9.30;2.67;;;4.20;1.00;;;;;;5074015;28;20613;-43
2023/03/27 07:31:47;;;;;;;10.50;3.80;;;4.40;1.00;;;;;;5073421;28;20419;-47
2023/03/27 07:34:17;;;;;;;6.90;2.60;;;4.50;1.00;;;;;;5074652;28;20415;-45
2023/03/27 07:36:43;;;;;;;5.40;2.20;;;4.80;99.90;;;;;;5073714;28;20427;-46
2023/03/27 07:39:11;;;;;;;7.80;2.10;;;4.90;99.90;;;;;;5074148;28;20976;-45
2023/03/27 07:41:36;;;;;;;5.73;2.13;;;4.90;99.90;;;;;;5073591;28;20423;-46
2023/03/27 07:44:02;;;;;;;6.23;2.43;;;4.90;99.90;;;;;;5072535;28;20418;-46
2023/03/27 07:46:28;;;;;;;11.40;2.10;;;5.20;99.90;;;;;;5072683;28;20326;-45
2023/03/27 07:48:55;;;;;;;6.10;1.87;;;5.60;33.30;;;;;;5071974;28;20180;-44
2023/03/27 07:51:22;;;;;;;4.40;2.03;;;5.90;1.00;;;;;;5069708;28;20161;-45
2023/03/27 07:53:52;;;;;;;6.17;2.00;;;5.80;1.00;;;;;;5072182;28;20558;-45
2023/03/27 07:56:19;;;;;;;5.93;3.00;;;5.60;1.00;;;;;;5072785;28;20469;-45
2023/03/27 07:58:45;;;;;;;23.70;10.83;;;5.70;1.00;;;;;;5070630;28;20526;-44
2023/03/27 08:01:12;;;;;;;35.33;20.70;;;5.70;1.00;;;;;;5070995;28;20776;-43
2023/03/27 08:03:37;;;;;;;17.90;8.27;;;5.90;1.00;;;;;;5071756;28;20506;-44
2023/03/27 08:06:05;;;;;;;8.00;3.53;;;5.90;1.00;;;;;;5073174;28;20568;-42
2023/03/27 08:08:31;;;;;;;5.60;1.90;;;5.90;1.00;;;;;;5074163;28;20172;-43
2023/03/27 08:10:58;;;;;;;9.30;3.67;;;6.10;1.00;;;;;;5056167;28;20526;-43
2023/03/27 08:13:24;;;;;;;7.57;4.80;;;6.40;1.00;;;;;;5074588;28;20424;-42
2023/03/27 08:15:50;;;;;;;9.70;3.80;;;7.30;1.00;;;;;;5093939;28;20465;-43
2023/03/27 08:18:15;;;;;;;4.77;2.17;;;7.80;1.00;;;;;;5094425;28;20689;-43
2023/03/27 08:20:41;;;;;;;5.83;1.90;;;8.00;1.00;;;;;;5095809;28;20196;-45
2023/03/27 08:23:06;;;;;;;6.33;2.40;;;8.80;1.00;;;;;;5094984;28;20169;-42
2023/03/27 08:25:33;;;;;;;4.57;1.90;;;9.80;1.00;;;;;;5093910;28;20320;-41
2023/03/27 08:28:00;;;;;;;4.00;1.67;;;9.90;1.00;;;;;;5092646;28;20238;-42
2023/03/27 08:30:26;;;;;;;6.20;2.20;;;9.90;1.00;;;;;;5092762;28;20417;-44
2023/03/27 08:32:52;;;;;;;3.53;1.63;;;9.90;1.00;;;;;;5094198;28;20434;-43
2023/03/27 08:35:18;;;;;;;5.53;1.97;;;10.20;1.00;;;;;;5093351;28;20563;-44
2023/03/27 08:37:43;;;;;;;8.10;1.87;;;10.80;1.00;;;;;;5094706;28;20542;-43
2023/03/27 08:40:26;;;;;;;5.40;2.07;;;11.00;1.00;;;;;;5094757;28;20238;-46
2023/03/27 08:42:54;;;;;;;5.10;2.20;;;11.90;1.00;;;;;;5094423;28;20180;-42
2023/03/27 08:45:56;;;;;;;6.07;2.70;;;12.60;1.00;;;;;;5094203;28;20697;-43
2023/03/27 08:48:31;;;;;;;5.83;2.23;;;13.40;1.00;;;;;;5083405;28;20591;-43
2023/03/27 08:51:02;;;;;;;5.30;2.03;;;14.20;1.00;;;;;;5075241;28;20440;-45
2023/03/27 08:53:36;;;;;;;4.70;1.70;;;15.00;1.00;;;;;;5092600;28;20425;-44
2023/03/27 08:56:02;;;;;;;6.40;2.73;;;15.40;1.00;;;;;;5092752;28;20606;-45
2023/03/27 08:58:29;;;;;;;4.43;2.60;;;15.80;1.00;;;;;;5090918;28;20414;-43
2023/03/27 09:00:57;;;;;;;6.03;2.57;;;16.50;1.00;;;;;;5094084;28;20419;-45
2023/03/27 09:03:31;;;;;;;5.23;2.50;;;16.50;1.00;;;;;;5092721;28;20437;-44
2023/03/27 09:06:17;;;;;;;5.90;2.20;;;16.80;1.00;;;;;;5091670;28;20422;-44
2023/03/27 09:08:56;;;;;;;5.50;1.70;;;17.10;1.00;;;;;;5090140;28;20854;-44
2023/03/27 09:11:33;;;;;;;4.10;1.90;;;17.10;1.00;;;;;;5093131;28;20513;-45
2023/03/27 09:14:00;;;;;;;3.93;2.33;;;16.60;1.00;;;;;;5096498;28;20823;-43
2023/03/27 09:16:26;;;;;;;4.53;1.90;;;16.00;1.00;;;;;;5094252;28;20457;-44
2023/03/27 09:18:55;;;;;;;4.87;1.90;;;15.80;1.00;;;;;;5094470;28;20699;-42
2023/03/27 09:21:45;;;;;;;6.27;1.63;;;16.00;1.00;;;;;;5093727;28;20594;-42
2023/03/27 09:24:26;;;;;;;7.90;2.23;;;16.50;1.00;;;;;;5094704;28;20407;-42
2023/03/27 09:26:52;;;;;;;7.07;1.83;;;17.30;1.00;;;;;;5091193;28;20457;-45
2023/03/27 09:29:24;;;;;;;3.53;2.00;;;17.60;1.00;;;;;;5094461;28;20650;-44
2023/03/27 09:31:53;;;;;;;3.90;1.90;;;16.80;1.00;;;;;;5094876;28;20450;-43
2023/03/27 09:34:33;;;;;;;2.70;1.43;;;16.30;1.00;;;;;;5096910;28;20407;-43
2023/03/27 09:36:59;;;;;;;7.87;1.70;;;15.30;1.00;;;;;;5096042;28;20421;-40
2023/03/27 09:39:32;;;;;;;5.13;1.53;;;15.50;1.00;;;;;;5095281;28;20493;-40
2023/03/27 09:42:08;;;;;;;14.13;2.27;;;15.30;1.00;;;;;;5094247;28;20796;-43
2023/03/27 09:44:36;;;;;;;6.30;1.67;;;15.70;1.00;;;;;;5091563;28;20570;-41
2023/03/27 09:47:15;;;;;;;4.83;1.60;;;15.90;1.00;;;;;;5091127;28;20799;-41
2023/03/27 09:49:55;;;;;;;5.07;1.80;;;16.00;1.00;;;;;;5091311;28;20453;-41
2023/03/27 09:52:37;;;;;;;3.87;1.43;;;16.80;1.00;;;;;;5093135;28;20414;-43
2023/03/27 09:55:23;;;;;;;4.83;2.20;;;16.90;1.00;;;;;;5093770;28;20478;-41
2023/03/27 09:57:57;;;;;;;5.97;3.50;;;17.40;1.00;;;;;;5094209;28;20410;-40
2023/03/27 10:00:28;;;;;;;5.70;2.30;;;16.50;1.00;;;;;;5095191;28;20796;-40
2023/03/27 10:02:59;;;;;;;5.17;3.10;;;15.90;1.00;;;;;;5094159;28;20921;-42
2023/03/27 10:05:26;;;;;;;4.33;2.20;;;15.90;1.00;;;;;;5094859;28;20414;-43
2023/03/27 10:07:51;;;;;;;6.13;2.00;;;16.20;1.00;;;;;;5096143;28;20426;-46
2023/03/27 10:10:19;;;;;;;4.13;1.50;;;16.70;1.00;;;;;;5095329;28;20558;-45
2023/03/27 10:12:52;;;;;;;6.83;1.90;;;17.00;1.00;;;;;;5095199;28;20468;-42
2023/03/27 10:15:35;;;;;;;3.57;1.97;;;17.40;1.00;;;;;;5094091;28;20490;-46
2023/03/27 10:18:23;;;;;;;10.13;2.40;;;17.90;1.00;;;;;;5094237;28;20414;-44
2023/03/27 10:20:50;;;;;;;3.70;2.30;;;18.30;1.00;;;;;;5095206;28;20522;-44
2023/03/27 10:23:28;;;;;;;4.30;2.17;;;17.40;1.00;;;;;;5091470;28;20421;-44
2023/03/27 10:25:59;;;;;;;5.10;2.00;;;15.80;99.90;;;;;;5092053;28;20836;-47
2023/03/27 10:28:35;;;;;;;7.20;2.23;;;14.60;99.90;;;;;;5094357;28;20843;-43
2023/03/27 10:31:03;;;;;;;5.17;1.70;;;15.10;99.90;;;;;;5077179;28;20624;-43
2023/03/27 10:33:37;;;;;;;6.63;1.80;;;16.50;99.90;;;;;;5093960;28;20434;-44
2023/03/27 10:36:05;;;;;;;4.63;1.73;;;16.30;99.90;;;;;;5094195;28;20543;-44
2023/03/27 10:38:31;;;;;;;4.13;2.13;;;16.40;99.90;;;;;;5092140;28;20422;-44
2023/03/27 10:40:59;;;;;;;4.80;2.50;;;17.10;1.00;;;;;;5076901;28;20856;-47
2023/03/27 10:43:32;;;;;;;5.77;2.00;;;18.20;1.00;;;;;;5094044;28;20415;-44
2023/03/27 10:46:03;;;;;;;6.50;4.17;;;17.40;99.90;;;;;;5094925;28;20608;-50
2023/03/27 10:48:49;;;;;;;5.47;3.10;;;17.40;99.90;;;;;;5094483;28;20581;-46
2023/03/27 10:51:33;;;;;;;3.43;2.20;;;17.60;99.90;;;;;;5094266;28;20464;-45
2023/03/27 10:54:37;;;;;;;3.80;2.17;;;18.90;1.00;;;;;;5095095;28;20457;-45
2023/03/27 10:57:26;;;;;;;3.70;2.13;;;19.80;1.00;;;;;;5062356;28;20739;-43
2023/03/27 11:00:18;;;;;;;2.83;1.60;;;20.40;1.00;;;;;;5094666;28;20406;-46
2023/03/27 11:02:56;;;;;;;4.23;1.57;;;18.70;99.90;;;;;;5077253;28;20457;-46
2023/03/27 11:05:36;;;;;;;4.70;1.50;;;18.30;99.90;;;;;;5090502;28;20521;-43
2023/03/27 11:08:07;;;;;;;5.80;2.40;;;18.50;99.90;;;;;;5086712;28;20430;-44
2023/03/27 11:10:41;;;;;;;5.37;1.67;;;19.50;1.00;;;;;;5089520;28;20886;-43
2023/03/27 11:13:14;;;;;;;4.93;1.83;;;20.10;1.00;;;;;;5093039;28;20786;-45
2023/03/27 11:15:47;;;;;;;6.67;1.77;;;19.20;99.90;;;;;;5091982;28;20526;-44
2023/03/27 11:18:26;;;;;;;2.73;1.60;;;17.60;99.90;;;;;;5091400;28;20729;-46
2023/03/27 11:21:01;;;;;;;3.20;1.53;;;17.40;99.90;;;;;;5090433;28;20415;-44
2023/03/27 11:23:45;;;;;;;5.00;1.63;;;18.30;99.90;;;;;;5090816;28;20709;-45
2023/03/27 11:26:14;;;;;;;3.23;1.63;;;19.50;99.90;;;;;;5090030;28;20738;-45
2023/03/27 11:29:01;;;;;;;6.27;1.87;;;20.30;1.00;;;;;;5093459;28;20422;-45
2023/03/27 11:31:48;;;;;;;5.40;1.90;;;21.00;1.00;;;;;;5091451;28;20410;-47
2023/03/27 11:34:18;;;;;;;4.73;1.57;;;19.30;99.90;;;;;;5092630;28;20479;-46
2023/03/27 11:36:51;;;;;;;4.87;1.40;;;18.80;99.90;;;;;;5090664;28;20474;-47
2023/03/27 11:39:47;;;;;;;3.93;1.70;;;18.90;99.90;;;;;;5092838;28;20414;-45
2023/03/27 11:42:23;;;;;;;2.83;1.30;;;19.50;99.90;;;;;;5093344;28;20411;-46
2023/03/27 11:44:50;;;;;;;3.63;1.40;;;20.10;99.90;;;;;;5092523;28;20428;-44
2023/03/27 11:47:40;;;;;;;3.70;2.40;;;20.10;99.90;;;;;;5091299;28;20423;-46
2023/03/27 11:50:22;;;;;;;3.57;1.63;;;18.10;99.90;;;;;;5092011;28;20418;-44
2023/03/27 11:53:15;;;;;;;4.50;1.60;;;16.90;99.90;;;;;;5087856;28;20430;-45
2023/03/27 11:55:52;;;;;;;2.83;1.10;;;17.10;99.90;;;;;;5090240;28;20784;-46
2023/03/27 11:58:35;;;;;;;2.13;1.57;;;18.30;99.90;;;;;;5091921;28;20442;-47
2023/03/27 12:01:06;;;;;;;2.57;1.30;;;18.50;99.90;;;;;;5091388;28;20996;-48
2023/03/27 12:03:32;;;;;;;3.87;1.57;;;19.60;99.90;;;;;;5091288;28;20748;-44
2023/03/27 12:06:17;;;;;;;2.57;1.23;;;20.60;99.90;;;;;;5090066;28;20414;-47
2023/03/27 12:09:16;;;;;;;2.60;1.00;;;21.20;99.90;;;;;;5092480;28;20191;-45
2023/03/27 12:11:49;;;;;;;2.83;1.13;;;21.60;1.00;;;;;;5094456;28;20429;-45
2023/03/27 12:14:14;;;;;;;5.33;1.53;;;22.30;1.00;;;;;;5091624;28;20418;-45
2023/03/27 12:16:46;;;;;;;3.47;1.70;;;22.90;1.00;;;;;;5093505;28;20418;-43
2023/03/27 12:19:30;;;;;;;2.60;1.07;;;21.60;99.90;;;;;;5076653;28;20299;-46
2023/03/27 12:22:20;;;;;;;3.37;1.20;;;20.30;99.90;;;;;;5092775;28;20418;-46
2023/03/27 12:24:55;;;;;;;2.50;1.40;;;18.90;99.90;;;;;;5090666;28;20666;-44
2023/03/27 12:27:48;;;;;;;4.73;1.47;;;17.50;99.90;;;;;;5092363;28;20465;-44
2023/03/27 12:30:35;;;;;;;4.53;1.57;;;15.90;99.90;;;;;;5092056;28;20447;-46
2023/03/27 12:33:20;;;;;;;2.70;1.27;;;15.20;99.90;;;;;;5092857;28;20435;-44
2023/03/27 12:35:52;;;;;;;3.53;1.03;;;15.30;99.90;;;;;;5090278;28;20556;-43
2023/03/27 12:38:34;;;;;;;3.10;1.40;;;14.80;99.90;;;;;;5091690;28;20580;-46
2023/03/27 12:41:09;;;;;;;5.80;1.43;;;12.90;99.90;;;;;;5073944;28;20410;-44
2023/03/27 12:43:39;;;;;;;6.33;1.60;;;13.20;99.90;;;;;;5092170;28;20422;-45
2023/03/27 12:46:23;;;;;;;3.47;1.30;;;13.90;99.90;;;;;;5094203;28;20737;-45
2023/03/27 12:48:48;;;;;;;4.80;1.53;;;14.50;99.90;;;;;;5093742;28;20419;-44
2023/03/27 12:51:18;;;;;;;3.60;1.83;;;15.80;99.90;;;;;;5093507;28;20479;-46
2023/03/27 12:53:54;;;;;;;4.83;1.50;;;15.50;99.90;;;;;;5093552;28;20263;-44
2023/03/27 12:56:28;;;;;;;3.87;1.27;;;14.50;99.90;;;;;;5095905;28;20469;-46
2023/03/27 12:58:54;;;;;;;3.93;1.40;;;13.50;99.90;;;;;;5094994;28;20410;-45
2023/03/27 13:01:40;;;;;;;5.50;1.40;;;11.70;99.90;;;;;;5094292;28;20424;-43
2023/03/27 13:04:30;;;;;;;7.57;1.90;;;11.20;99.90;;;;;;5054651;28;20426;-43
2023/03/27 13:07:09;;;;;;;3.60;1.00;;;12.20;99.90;;;;;;5094606;28;20473;-45
2023/03/27 13:09:45;;;;;;;2.97;1.57;;;13.40;99.90;;;;;;5095057;28;20831;-47
2023/03/27 13:12:16;;;;;;;3.67;1.30;;;13.60;99.90;;;;;;5092879;28;20590;-44
2023/03/27 13:14:42;;;;;;;4.23;1.60;;;15.30;99.90;;;;;;5094492;28;20462;-44
2023/03/27 13:17:14;;;;;;;4.83;1.20;;;15.80;99.90;;;;;;5093566;28;20432;-42
2023/03/27 13:20:11;;;;;;;3.07;1.63;;;14.80;99.90;;;;;;5093822;28;20392;-44
2023/03/27 13:22:55;;;;;;;4.43;1.40;;;14.50;99.90;;;;;;5094362;28;20514;-46